Time;durP1;ratioP1;P1;durP2;ratioP2;P2;SDS_P1;SDS_P2;PMS_P1;PMS_P2;Temp;Humidity;BMP_temperature;BMP_pressure;BME280_temperature;BME280_humidity;BME280_pressure;Samples;Min_cycle;Max_cycle;Signal;HPM_P1;HPM_P2
2023/05/22 00:02:04;;;;;;;;;19.75;18.50;;;;;16.86;71.07;100242.00;5067567;28;45592;-79
2023/05/22 00:04:30;;;;;;;;;21.50;20.25;;;;;16.38;70.59;100147.94;5067238;28;45543;-80
2023/05/22 00:06:56;;;;;;;;;23.75;23.50;;;;;16.18;70.36;100119.81;5071117;28;45507;-79
2023/05/22 00:09:24;;;;;;;;;23.00;21.75;;;;;16.89;70.89;100246.41;5064990;28;45532;-79
2023/05/22 00:11:50;;;;;;;;;23.25;21.00;;;;;15.93;70.32;100082.03;5068172;28;45269;-79
2023/05/22 00:14:16;;;;;;;;;18.50;18.25;;;;;16.39;70.00;100147.94;5069821;28;45383;-79
2023/05/22 00:16:41;;;;;;;;;20.50;19.25;;;;;16.90;70.83;100237.63;5069348;28;45466;-79
2023/05/22 00:19:11;;;;;;;;;21.25;20.50;;;;;16.62;70.83;100190.13;5066104;28;45443;-79
2023/05/22 00:21:38;;;;;;;;;22.50;20.75;;;;;16.75;70.30;100201.56;5069530;28;45616;-79
2023/05/22 00:24:04;;;;;;;;;22.75;20.25;;;;;16.92;70.33;100230.56;5059191;28;45413;-78
2023/05/22 00:26:30;;;;;;;;;22.00;21.75;;;;;16.98;69.97;100232.34;5066900;28;45548;-79
2023/05/22 00:28:56;;;;;;;;;22.00;20.50;;;;;16.19;69.58;100092.56;5066420;28;46058;-79
2023/05/22 00:31:22;;;;;;;;;16.00;15.00;;;;;17.01;69.71;100227.03;5067656;28;45226;-79
2023/05/22 00:33:47;;;;;;;;;20.00;19.75;;;;;16.75;70.02;100185.72;5066417;28;45459;-80
2023/05/22 00:36:13;;;;;;;;;21.50;20.25;;;;;16.25;69.92;100096.97;5065350;28;46137;-80
2023/05/22 00:38:39;;;;;;;;;21.00;20.00;;;;;16.04;70.21;100074.16;5063048;28;45810;-80
2023/05/22 00:41:05;;;;;;;;;20.00;20.00;;;;;16.96;70.26;100218.25;5079251;27;45530;-80
2023/05/22 00:43:32;;;;;;;;;22.00;20.75;;;;;16.95;70.28;100206.84;5079091;27;45496;-80
2023/05/22 00:45:58;;;;;;;;;18.00;17.50;;;;;17.02;70.27;100220.88;5064082;28;45423;-80
2023/05/22 00:48:24;;;;;;;;;20.75;18.50;;;;;16.93;70.00;100220.88;5058646;28;45583;-79
2023/05/22 00:50:51;;;;;;;;;19.00;17.75;;;;;17.00;70.15;100212.97;5057386;28;45464;-80
2023/05/22 00:53:20;;;;;;;;;21.00;19.75;;;;;16.83;70.81;100186.63;5040779;28;45585;-80
2023/05/22 00:55:46;;;;;;;;;18.50;18.00;;;;;16.73;70.76;100171.63;5058563;28;46008;-80
2023/05/22 00:58:15;;;;;;;;;18.75;17.75;;;;;16.86;70.63;100186.59;5057661;28;45505;-79
2023/05/22 01:00:41;;;;;;;;;21.50;19.00;;;;;16.89;70.59;100188.34;5055319;28;45504;-79
2023/05/22 01:03:08;;;;;;;;;22.50;22.25;;;;;16.66;70.68;100154.06;5058027;28;45605;-79
2023/05/22 01:05:38;;;;;;;;;19.75;18.50;;;;;16.92;70.50;100182.22;5057746;28;46558;-80
2023/05/22 01:08:06;;;;;;;;;21.25;21.00;;;;;16.73;70.13;100155.81;5069607;28;45356;-79
2023/05/22 01:10:32;;;;;;;;;23.00;21.50;;;;;16.89;70.95;100189.25;5061221;28;45645;-79
2023/05/22 01:13:28;;;;;;;;;24.00;23.75;;;;;16.74;72.59;100194.50;5073487;28;45402;-79
2023/05/22 01:16:19;;;;;;;;;26.50;23.75;;;;;16.67;72.24;100198.00;5057222;28;45408;-81
2023/05/22 01:19:01;;;;;;;;;21.25;19.25;;;;;13.65;72.00;99681.84;5055757;28;45420;-82
2023/05/22 01:21:36;;;;;;;;;18.50;17.50;;;;;16.73;71.52;100194.50;5067178;28;45390;-81
2023/05/22 01:24:10;;;;;;;;;20.75;20.00;;;;;16.75;71.60;100196.28;5062980;28;45584;-81
2023/05/22 01:27:06;;;;;;;;;18.75;18.00;;;;;16.81;71.10;100201.59;5058978;28;46648;-81
2023/05/22 01:29:40;;;;;;;;;22.00;20.25;;;;;16.81;71.41;100198.94;5065450;27;45472;-80
2023/05/22 01:32:09;;;;;;;;;20.00;19.00;;;;;16.83;71.53;100196.28;5064421;28;45221;-81
2023/05/22 01:34:38;;;;;;;;;24.00;22.00;;;;;16.25;71.11;100103.16;5065373;28;45384;-81
2023/05/22 01:37:04;;;;;;;;;22.75;21.25;;;;;16.92;71.34;100208.59;5071816;28;45244;-80
2023/05/22 01:39:30;;;;;;;;;23.00;22.00;;;;;16.16;71.40;100062.75;5057552;28;46184;-80
2023/05/22 01:41:56;;;;;;;;;21.00;21.00;;;;;16.87;71.12;100203.31;5057240;28;45501;-80
2023/05/22 01:44:22;;;;;;;;;20.50;19.25;;;;;16.87;71.20;100204.22;5057965;28;45434;-81
2023/05/22 01:46:48;;;;;;;;;22.25;21.00;;;;;16.82;71.24;100205.97;5072143;28;46094;-80
2023/05/22 01:49:14;;;;;;;;;21.00;20.00;;;;;16.69;70.79;100190.97;5044385;28;45426;-80
2023/05/22 01:51:56;;;;;;;;;24.00;23.00;;;;;16.81;71.18;100198.94;5057616;28;45533;-80
2023/05/22 01:54:36;;;;;;;;;20.50;19.00;;;;;16.13;71.15;100084.69;5072682;28;45388;-80
2023/05/22 01:57:29;;;;;;;;;23.00;21.25;;;;;16.54;71.19;100143.56;5065272;28;46212;-80
2023/05/22 02:00:08;;;;;;;;;23.25;22.25;;;;;15.93;71.23;100046.94;5075520;27;45503;-80
2023/05/22 02:02:39;;;;;;;;;22.00;20.75;;;;;16.73;70.84;100179.53;5057200;28;45402;-81
2023/05/22 02:05:07;;;;;;;;;22.75;19.75;;;;;16.88;71.18;100198.03;5057038;28;45500;-80
2023/05/22 02:07:38;;;;;;;;;20.50;19.25;;;;;15.88;70.83;100021.47;5071874;28;46579;-81
2023/05/22 02:10:06;;;;;;;;;23.00;20.75;;;;;14.82;70.64;99841.53;5056928;28;45501;-81
2023/05/22 02:12:32;;;;;;;;;20.00;19.00;;;;;16.01;70.32;100038.13;5064390;28;45538;-81
2023/05/22 02:14:58;;;;;;;;;20.25;20.00;;;;;15.82;71.64;100029.38;5064505;28;45600;-82
2023/05/22 02:17:24;;;;;;;;;20.25;20.00;;;;;16.64;71.44;100169.91;5056920;28;46162;-80
2023/05/22 02:19:50;;;;;;;;;23.75;22.00;;;;;16.53;70.77;100147.06;5072430;28;45508;-80
2023/05/22 02:22:16;;;;;;;;;22.50;21.25;;;;;16.62;71.50;100170.78;5069618;28;45544;-80
2023/05/22 02:24:46;;;;;;;;;20.00;19.00;;;;;16.28;71.87;100125.97;5064825;28;45549;-80
2023/05/22 02:27:12;;;;;;;;;22.25;21.25;;;;;16.39;71.61;100140.00;5056215;28;45370;-80
2023/05/22 02:29:38;;;;;;;;;24.00;23.00;;;;;16.40;71.20;100147.06;5056880;28;45267;-80
2023/05/22 02:32:04;;;;;;;;;26.75;24.25;;;;;16.24;70.63;100117.19;5059274;28;45323;-81
2023/05/22 02:34:32;;;;;;;;;24.50;20.75;;;;;16.57;71.04;100175.16;5075683;28;45637;-81
2023/05/22 02:36:59;;;;;;;;;22.75;21.75;;;;;16.20;70.91;100117.19;5076428;28;46224;-81
2023/05/22 02:39:26;;;;;;;;;27.25;25.25;;;;;16.36;70.68;100142.66;5062778;28;45522;-81
2023/05/22 02:41:51;;;;;;;;;25.25;24.75;;;;;16.61;70.81;100188.38;5056151;28;45513;-80
2023/05/22 02:44:17;;;;;;;;;27.00;25.00;;;;;16.55;70.75;100177.81;5072169;28;45477;-81
2023/05/22 02:46:42;;;;;;;;;23.50;23.50;;;;;16.05;70.81;100089.06;5041643;28;47343;-80
2023/05/22 02:49:08;;;;;;;;;27.75;25.50;;;;;16.75;70.83;100206.84;5056186;28;45534;-80
2023/05/22 02:51:33;;;;;;;;;23.25;22.25;;;;;16.80;70.92;100205.06;5054259;28;45597;-80
2023/05/22 02:53:59;;;;;;;;;24.75;23.50;;;;;16.84;70.93;100206.84;5059453;28;45564;-80
2023/05/22 02:56:26;;;;;;;;;24.25;22.00;;;;;16.55;71.06;100140.00;5076090;28;45256;-80
2023/05/22 02:58:52;;;;;;;;;23.25;21.00;;;;;16.64;71.60;100161.97;5072771;28;45428;-80
2023/05/22 03:01:17;;;;;;;;;24.75;23.50;;;;;15.54;72.13;99993.31;5056166;28;45569;-81
2023/05/22 03:03:43;;;;;;;;;22.25;22.25;;;;;16.13;71.50;100094.34;5056567;28;45342;-81
2023/05/22 03:06:09;;;;;;;;;29.25;25.75;;;;;16.26;71.78;100139.16;5056325;28;46219;-80
2023/05/22 03:08:40;;;;;;;;;23.00;22.75;;;;;16.75;71.25;100193.66;5071957;28;45384;-81
2023/05/22 03:11:05;;;;;;;;;22.50;21.75;;;;;15.88;70.96;100049.56;5063492;28;45425;-81
2023/05/22 03:13:31;;;;;;;;;23.00;23.00;;;;;15.54;70.90;99977.53;5065187;28;45542;-81
2023/05/22 03:15:58;;;;;;;;;22.75;21.25;;;;;16.75;70.94;100222.66;5055924;28;46045;-80
2023/05/22 03:18:25;;;;;;;;;21.50;20.25;;;;;16.86;71.22;100194.53;5071163;28;45570;-81
2023/05/22 03:20:50;;;;;;;;;21.00;20.00;;;;;16.41;70.86;100122.47;5063039;28;45567;-81
2023/05/22 03:23:16;;;;;;;;;23.50;23.00;;;;;16.88;71.33;100194.53;5075605;28;45498;-81
2023/05/22 03:25:42;;;;;;;;;21.25;20.25;;;;;16.79;71.61;100199.75;5066256;28;45512;-80
2023/05/22 03:28:08;;;;;;;;;27.25;25.25;;;;;16.27;72.27;100132.13;5055903;28;45490;-81
2023/05/22 03:30:33;;;;;;;;;25.50;23.50;;;;;16.70;72.29;100203.31;5056278;28;45488;-81
2023/05/22 03:32:59;;;;;;;;;22.25;21.00;;;;;15.87;71.88;100055.69;5056020;28;45564;-81
2023/05/22 03:35:25;;;;;;;;;22.25;21.25;;;;;16.71;72.38;100212.97;5055694;28;45494;-81
2023/05/22 03:37:50;;;;;;;;;22.25;21.50;;;;;16.44;71.96;100156.72;5074051;28;45319;-81
2023/05/22 03:40:16;;;;;;;;;21.00;20.00;;;;;16.26;72.31;100133.88;5074773;28;45508;-80
2023/05/22 03:42:42;;;;;;;;;19.75;19.75;;;;;16.00;72.02;100094.34;5075621;28;45578;-80
2023/05/22 03:45:08;;;;;;;;;22.00;21.75;;;;;16.72;72.22;100211.22;5060736;28;46011;-81
2023/05/22 03:47:33;;;;;;;;;22.00;21.25;;;;;16.75;72.07;100206.84;5069771;27;45467;-81
2023/05/22 03:49:59;;;;;;;;;23.75;21.75;;;;;16.47;71.91;100166.38;5062167;28;45222;-81
2023/05/22 03:52:24;;;;;;;;;21.50;21.25;;;;;15.84;71.51;100060.97;5065469;28;45318;-81
2023/05/22 03:54:50;;;;;;;;;25.75;24.00;;;;;16.13;71.25;100102.25;5066195;28;46963;-81
2023/05/22 03:57:18;;;;;;;;;24.75;22.50;;;;;16.19;71.84;100118.94;5065962;28;45533;-81
2023/05/22 03:59:45;;;;;;;;;22.50;21.25;;;;;15.71;71.86;100039.84;5057279;28;45171;-80
2023/05/22 04:02:11;;;;;;;;;23.00;22.75;;;;;15.58;71.71;100014.41;5059911;28;45390;-81
2023/05/22 04:04:37;;;;;;;;;25.50;24.50;;;;;16.75;72.12;100214.75;5058113;28;46446;-80
2023/05/22 04:07:07;;;;;;;;;25.75;24.00;;;;;16.69;72.14;100214.72;5058981;28;45470;-80
2023/05/22 04:09:34;;;;;;;;;22.50;21.25;;;;;16.73;72.04;100213.84;5059390;28;45439;-81
2023/05/22 04:12:01;;;;;;;;;22.50;22.00;;;;;16.75;72.17;100211.19;5058794;28;45391;-81
2023/05/22 04:14:27;;;;;;;;;23.00;20.50;;;;;13.76;71.96;99710.75;5058137;28;46106;-80
2023/05/22 04:16:52;;;;;;;;;22.25;22.25;;;;;16.62;72.15;100190.13;5058054;28;45445;-80
2023/05/22 04:19:18;;;;;;;;;22.00;21.25;;;;;16.77;71.83;100214.72;5071076;28;45486;-80
2023/05/22 04:21:44;;;;;;;;;21.00;20.50;;;;;16.80;71.63;100212.09;5061397;28;45660;-80
2023/05/22 04:24:10;;;;;;;;;23.75;22.25;;;;;16.75;71.74;100212.09;5058722;28;45577;-81
2023/05/22 04:26:37;;;;;;;;;24.25;22.75;;;;;16.73;71.93;100211.19;5060899;28;45371;-79
2023/05/22 04:29:05;;;;;;;;;18.00;16.75;;;;;16.76;72.00;100216.47;5062944;28;45603;-80
2023/05/22 04:31:31;;;;;;;;;22.00;21.50;;;;;16.60;72.07;100183.09;5077957;28;45499;-80
2023/05/22 04:33:58;;;;;;;;;21.75;19.25;;;;;16.72;72.22;100212.09;5077737;28;46166;-80
2023/05/22 04:36:28;;;;;;;;;21.25;20.50;;;;;16.39;72.31;100152.31;5079091;28;45436;-81
2023/05/22 04:38:54;;;;;;;;;20.00;18.75;;;;;16.67;72.38;100196.28;5079192;28;45632;-80
2023/05/22 04:41:21;;;;;;;;;24.25;23.25;;;;;15.87;72.30;100067.09;5079023;27;45220;-81
2023/05/22 04:43:47;;;;;;;;;22.50;21.75;;;;;16.22;72.49;100137.41;5077862;28;46291;-80
2023/05/22 04:46:15;;;;;;;;;23.25;21.25;;;;;16.73;72.29;100219.09;5062184;28;45536;-80
2023/05/22 04:48:41;;;;;;;;;21.00;20.50;;;;;16.59;71.97;100195.41;5058633;28;45454;-80
2023/05/22 04:51:07;;;;;;;;;26.00;23.50;;;;;16.71;72.52;100210.31;5058209;28;45411;-80
2023/05/22 04:53:32;;;;;;;;;32.25;28.50;;;;;16.50;73.66;100192.75;5069287;28;46018;-80
2023/05/22 04:56:01;;;;;;;;;26.50;25.25;;;;;16.11;73.30;100136.50;5065936;28;45540;-80
2023/05/22 04:58:27;;;;;;;;;26.50;26.00;;;;;16.22;74.00;100147.94;5073227;28;45442;-80
2023/05/22 05:00:53;;;;;;;;;25.75;24.00;;;;;16.64;73.77;100225.28;5060221;28;45371;-80
2023/05/22 05:03:19;;;;;;;;;26.25;23.75;;;;;16.64;73.68;100227.91;5058299;28;45935;-81
2023/05/22 05:05:46;;;;;;;;;27.50;24.75;;;;;16.18;73.63;100150.59;5076886;27;45357;-80
2023/05/22 05:08:12;;;;;;;;;27.00;24.25;;;;;16.36;72.91;100182.22;5059947;28;45347;-80
2023/05/22 05:10:37;;;;;;;;;27.75;24.25;;;;;16.33;73.57;100170.78;5074328;28;45216;-80
2023/05/22 05:13:03;;;;;;;;;24.25;24.25;;;;;16.05;73.81;100152.31;5057480;28;45596;-80
2023/05/22 05:15:29;;;;;;;;;24.25;23.50;;;;;16.70;74.26;100234.94;5050577;28;45432;-80
2023/05/22 05:17:54;;;;;;;;;23.25;22.75;;;;;16.72;73.56;100233.19;5060122;28;45555;-80
2023/05/22 05:20:20;;;;;;;;;26.00;24.50;;;;;16.41;73.03;100185.75;5074316;27;45302;-80
2023/05/22 05:22:46;;;;;;;;;25.00;24.00;;;;;16.74;72.50;100233.19;5057503;28;45549;-80
2023/05/22 05:25:12;;;;;;;;;24.00;22.50;;;;;16.35;72.61;100166.38;5063181;28;45577;-80
2023/05/22 05:27:38;;;;;;;;;25.75;25.00;;;;;15.67;72.92;100059.16;5064183;28;45525;-80
2023/05/22 05:30:03;;;;;;;;;25.50;24.75;;;;;16.68;73.77;100236.72;5075320;28;45432;-79
2023/05/22 05:32:29;;;;;;;;;23.00;22.00;;;;;16.70;73.47;100240.22;5062425;28;45615;-79
2023/05/22 05:34:55;;;;;;;;;29.00;27.00;;;;;16.15;72.89;100140.03;5067130;28;45515;-78
2023/05/22 05:37:21;;;;;;;;;25.75;22.75;;;;;16.40;72.80;100181.34;5070321;28;45307;-78
2023/05/22 05:39:47;;;;;;;;;26.75;25.25;;;;;16.79;73.26;100244.63;5077081;28;45486;-79
2023/05/22 05:42:12;;;;;;;;;23.75;23.75;;;;;16.46;72.87;100185.72;5062650;28;45713;-79
2023/05/22 05:44:38;;;;;;;;;29.50;26.00;;;;;16.46;72.13;100176.06;5072549;28;45551;-79
2023/05/22 05:47:04;;;;;;;;;28.00;27.75;;;;;16.85;72.38;100248.19;5062584;28;45382;-78
2023/05/22 05:49:29;;;;;;;;;29.75;28.50;;;;;16.70;72.67;100217.38;5076713;28;45597;-79
2023/05/22 05:51:55;;;;;;;;;26.75;26.00;;;;;16.72;72.34;100221.78;5062636;28;45598;-78
2023/05/22 05:54:21;;;;;;;;;27.00;27.00;;;;;16.72;72.73;100230.56;5058008;28;45370;-78
2023/05/22 05:56:47;;;;;;;;;25.25;22.00;;;;;16.30;72.52;100155.84;5058323;28;45417;-78
2023/05/22 05:59:12;;;;;;;;;30.00;27.50;;;;;16.87;72.69;100249.06;5062744;28;45410;-78
2023/05/22 06:01:43;;;;;;;;;28.25;25.75;;;;;16.85;73.57;100266.66;5067264;28;45511;-79
2023/05/22 06:04:08;;;;;;;;;33.00;29.75;;;;;16.82;73.57;100261.34;5062436;28;45501;-79
2023/05/22 06:06:35;;;;;;;;;30.25;24.00;;;;;16.70;72.65;100235.81;5075085;28;45463;-78
2023/05/22 06:09:05;;;;;;;;;27.50;24.25;;;;;16.48;72.59;100198.03;5057439;28;45655;-78
2023/05/22 06:11:31;;;;;;;;;27.00;25.25;;;;;16.39;72.01;100174.28;5072182;28;46064;-79
2023/05/22 06:13:58;;;;;;;;;29.00;28.00;;;;;16.88;72.23;100258.72;5056819;28;45339;-79
2023/05/22 06:16:27;;;;;;;;;24.25;22.25;;;;;16.88;72.22;100256.06;5072130;28;45427;-78
2023/05/22 06:18:52;;;;;;;;;28.50;26.00;;;;;16.67;72.28;100230.56;5062921;28;45370;-79
2023/05/22 06:21:21;;;;;;;;;22.00;21.00;;;;;16.82;72.30;100245.53;5058344;28;47783;-79
2023/05/22 06:23:48;;;;;;;;;28.00;26.00;;;;;16.52;72.73;100204.19;5076469;28;45427;-79
2023/05/22 06:26:14;;;;;;;;;26.75;24.00;;;;;16.87;72.80;100271.91;5057373;28;45576;-78
2023/05/22 06:28:40;;;;;;;;;23.50;22.00;;;;;15.71;72.86;100070.56;5056470;28;45591;-78
2023/05/22 06:31:08;;;;;;;;;23.75;23.00;;;;;16.03;72.74;100111.91;5068357;28;46046;-78
2023/05/22 06:33:33;;;;;;;;;24.75;23.50;;;;;16.69;72.64;100212.06;5056879;28;45454;-78
2023/05/22 06:35:59;;;;;;;;;26.75;25.00;;;;;16.87;72.54;100235.88;5063251;28;45557;-78
2023/05/22 06:38:25;;;;;;;;;27.75;26.00;;;;;17.05;72.90;100271.00;5056873;28;45497;-78
2023/05/22 06:40:50;;;;;;;;;28.00;25.00;;;;;16.19;72.97;100137.38;5038324;28;45744;-79
2023/05/22 06:43:17;;;;;;;;;27.50;26.00;;;;;16.93;73.99;100277.19;5056964;28;45280;-78
2023/05/22 06:45:42;;;;;;;;;25.00;24.75;;;;;16.86;74.36;100281.59;5056795;28;45273;-78
2023/05/22 06:48:08;;;;;;;;;26.00;24.75;;;;;16.86;73.29;100280.72;5056531;28;45327;-78
2023/05/22 06:50:33;;;;;;;;;27.25;26.00;;;;;15.95;72.95;100146.16;5065087;28;46097;-78
2023/05/22 06:52:59;;;;;;;;;26.50;25.00;;;;;16.79;73.11;100293.00;5056005;28;45538;-78
2023/05/22 06:55:24;;;;;;;;;27.00;26.00;;;;;16.81;73.45;100295.63;5056258;28;45434;-78
2023/05/22 06:57:50;;;;;;;;;17.50;16.25;;;;;16.89;73.40;100301.81;5071541;28;45600;-78
2023/05/22 07:00:17;;;;;;;;;31.75;30.00;;;;;16.66;73.40;100244.63;5057100;28;46488;-78
2023/05/22 07:02:42;;;;;;;;;28.50;26.25;;;;;16.95;73.15;100293.91;5076052;28;45541;-78
2023/05/22 07:05:08;;;;;;;;;27.25;26.50;;;;;16.61;72.87;100224.38;5065764;28;45631;-78
2023/05/22 07:07:33;;;;;;;;;28.00;26.75;;;;;16.60;72.64;100201.56;5070625;28;45560;-78
2023/05/22 07:09:59;;;;;;;;;31.25;27.75;;;;;16.55;72.96;100190.13;5058707;28;46207;-78
2023/05/22 07:12:26;;;;;;;;;29.00;27.25;;;;;17.32;71.10;100293.00;5069657;27;45446;-78
2023/05/22 07:14:51;;;;;;;;;28.25;26.75;;;;;17.47;71.45;100298.25;5057221;28;45442;-77
2023/05/22 07:17:20;;;;;;;;;27.00;26.25;;;;;17.64;71.47;100290.25;5074700;28;45656;-78
2023/05/22 07:19:47;;;;;;;;;30.00;27.75;;;;;17.26;69.71;100193.56;5065259;28;45454;-78
2023/05/22 07:22:13;;;;;;;;;27.75;27.00;;;;;18.11;68.69;100299.81;5069774;28;45315;-78
2023/05/22 07:24:39;;;;;;;;;42.25;34.75;;;;;18.20;68.37;100281.25;5075844;28;45476;-78
2023/05/22 07:27:05;;;;;;;;;29.50;29.00;;;;;18.48;67.79;100279.31;5076281;28;45426;-79
2023/05/22 07:29:30;;;;;;;;;30.75;29.75;;;;;18.87;67.08;100301.09;5067087;28;46560;-78
2023/05/22 07:31:56;;;;;;;;;22.50;21.25;;;;;18.97;65.85;100301.03;5068923;28;45366;-78
2023/05/22 07:34:21;;;;;;;;;26.75;26.25;;;;;18.30;65.23;100197.44;5076808;28;45525;-78
2023/05/22 07:36:47;;;;;;;;;29.00;28.25;;;;;18.50;65.25;100239.63;5077673;28;45423;-78
2023/05/22 07:39:13;;;;;;;;;33.25;30.75;;;;;18.85;65.23;100316.13;5077964;28;46804;-79
2023/05/22 07:41:40;;;;;;;;;30.50;29.25;;;;;18.77;65.59;100309.97;5060228;28;45395;-78
2023/05/22 07:44:05;;;;;;;;;26.25;25.25;;;;;18.64;65.41;100285.41;5063748;28;45517;-79
2023/05/22 07:46:31;;;;;;;;;25.50;25.50;;;;;18.71;65.05;100283.56;5059043;28;45249;-80
2023/05/22 07:48:57;;;;;;;;;27.00;25.50;;;;;19.07;64.81;100321.25;5069829;28;46543;-80
2023/05/22 07:51:22;;;;;;;;;27.00;25.00;;;;;19.20;64.73;100314.97;5065495;28;45509;-81
2023/05/22 07:53:48;;;;;;;;;23.25;22.25;;;;;19.17;64.04;100287.63;5074769;28;45563;-83
2023/05/22 07:56:13;;;;;;;;;24.00;21.00;;;;;19.07;63.64;100255.06;5076700;28;45374;-81
2023/05/22 07:58:39;;;;;;;;;26.50;24.00;;;;;19.12;63.27;100262.94;5077169;28;45889;-81
2023/05/22 08:01:06;;;;;;;;;23.75;20.50;;;;;19.52;63.33;100305.81;5077858;28;45533;-76
2023/05/22 08:03:32;;;;;;;;;24.50;23.75;;;;;19.58;62.54;100308.41;5076326;28;45326;-75
2023/05/22 08:05:58;;;;;;;;;21.75;18.75;;;;;19.50;61.86;100306.72;5078679;27;45438;-74
2023/05/22 08:08:24;;;;;;;;;28.75;24.75;;;;;19.03;62.35;100258.63;5078609;27;45579;-76
2023/05/22 08:10:49;;;;;;;;;25.25;24.25;;;;;19.27;62.70;100315.78;5076245;28;45409;-79
2023/05/22 08:13:17;;;;;;;;;23.75;22.75;;;;;19.22;62.72;100321.13;5079818;28;45336;-80
2023/05/22 08:15:43;;;;;;;;;24.00;23.00;;;;;18.82;62.66;100265.88;5078778;28;45324;-78
2023/05/22 08:18:08;;;;;;;;;22.00;21.50;;;;;19.01;62.93;100308.06;5078151;28;45523;-74
2023/05/22 08:20:34;;;;;;;;;24.00;21.00;;;;;19.03;62.71;100328.34;5078732;28;45578;-74
2023/05/22 08:22:59;;;;;;;;;23.00;22.00;;;;;18.96;63.68;100326.66;5078790;28;45474;-77
2023/05/22 08:25:25;;;;;;;;;24.25;22.75;;;;;18.99;64.31;100317.78;5078828;27;45658;-76
2023/05/22 08:27:50;;;;;;;;;24.50;24.00;;;;;19.05;64.47;100309.78;5078768;28;45504;-74
2023/05/22 08:30:16;;;;;;;;;25.50;24.50;;;;;19.06;63.73;100299.19;5078184;28;45658;-77
2023/05/22 08:32:42;;;;;;;;;24.25;22.50;;;;;19.20;63.73;100309.66;5078495;28;45524;-75
2023/05/22 08:35:08;;;;;;;;;31.00;28.00;;;;;19.14;63.99;100291.19;5078510;28;45510;-73
2023/05/22 08:37:34;;;;;;;;;26.00;21.25;;;;;19.35;63.89;100307.75;5078214;28;45965;-75
2023/05/22 08:40:00;;;;;;;;;24.50;24.50;;;;;19.43;63.43;100316.50;5078001;28;45457;-73
2023/05/22 08:42:25;;;;;;;;;22.75;21.50;;;;;19.38;63.32;100297.16;5078145;28;45247;-74
2023/05/22 08:44:51;;;;;;;;;27.75;24.50;;;;;19.39;63.07;100288.28;5077386;28;45552;-73
2023/05/22 08:47:19;;;;;;;;;27.75;24.50;;;;;19.60;63.47;100306.59;5077589;28;46303;-74
2023/05/22 08:49:49;;;;;;;;;22.75;22.00;;;;;19.80;62.97;100313.50;5077712;28;45457;-77
2023/05/22 08:52:21;;;;;;;;;23.75;21.50;;;;;19.95;62.62;100310.63;5078048;28;45497;-75
2023/05/22 08:54:53;;;;;;;;;21.75;20.75;;;;;20.06;62.29;100306.09;5076068;28;45386;-75
2023/05/22 08:57:20;;;;;;;;;24.50;23.50;;;;;20.08;61.63;100305.22;5078441;28;46164;-74
2023/05/22 08:59:47;;;;;;;;;24.25;22.75;;;;;20.10;62.26;100261.84;5078430;27;45509;-74
2023/05/22 09:02:13;;;;;;;;;24.25;22.50;;;;;20.59;62.24;100292.13;5078703;28;45501;-77
2023/05/22 09:04:42;;;;;;;;;22.75;22.75;;;;;21.06;61.69;100293.13;5078399;28;46160;-77
2023/05/22 09:07:07;;;;;;;;;25.00;23.50;;;;;21.41;60.97;100294.28;5077734;27;45548;-78
2023/05/22 09:09:37;;;;;;;;;21.00;20.25;;;;;21.64;59.48;100292.09;5077372;28;45481;-76
2023/05/22 09:12:07;;;;;;;;;23.50;22.75;;;;;21.59;59.14;100296.63;5074901;28;45445;-79
2023/05/22 09:14:43;;;;;;;;;20.75;20.25;;;;;20.37;59.80;100106.72;5078258;28;45703;-80
2023/05/22 09:17:13;;;;;;;;;22.00;21.25;;;;;21.28;60.04;100285.66;5078341;28;46193;-79
2023/05/22 09:19:43;;;;;;;;;21.33;19.67;;;;;21.30;59.86;100309.56;5078224;28;45450;-76
2023/05/22 09:22:08;;;;;;;;;26.50;22.75;;;;;21.15;60.31;100290.34;5060054;28;45391;-80
2023/05/22 09:24:39;;;;;;;;;24.50;23.50;;;;;20.74;60.34;100260.03;5078094;28;45375;-77
2023/05/22 09:27:09;;;;;;;;;24.75;22.50;;;;;20.86;61.37;100291.69;5077946;28;45631;-76
2023/05/22 09:29:48;;;;;;;;;24.25;22.50;;;;;20.60;62.27;100278.84;5077533;28;45333;-76
2023/05/22 09:32:15;;;;;;;;;23.25;22.25;;;;;20.74;62.16;100310.47;5078157;28;45311;-76
2023/05/22 09:34:40;;;;;;;;;24.00;23.25;;;;;20.48;62.41;100254.25;5078337;28;45378;-76
2023/05/22 09:37:06;;;;;;;;;23.75;21.25;;;;;20.77;62.27;100304.22;5077935;28;45280;-79
2023/05/22 09:39:43;;;;;;;;;26.00;25.00;;;;;20.84;61.21;100303.25;5059669;28;45462;-78
2023/05/22 09:42:14;;;;;;;;;24.25;23.50;;;;;20.63;60.92;100252.25;5078112;28;45483;-77
2023/05/22 09:44:42;;;;;;;;;28.50;28.25;;;;;20.33;60.90;100247.38;5078315;28;45385;-80
2023/05/22 09:47:11;;;;;;;;;23.50;22.25;;;;;20.42;60.97;100241.94;5077635;28;45994;-79
2023/05/22 09:49:41;;;;;;;;;25.75;23.00;;;;;20.55;61.00;100262.09;5077666;27;45368;-80
2023/05/22 09:52:08;;;;;;;;;21.75;20.50;;;;;20.84;60.82;100312.06;5078021;28;45486;-76
2023/05/22 09:54:34;;;;;;;;;27.25;27.00;;;;;20.82;61.10;100318.31;5077072;27;45559;-79
2023/05/22 09:57:03;;;;;;;;;26.50;25.50;;;;;20.73;61.11;100311.38;5077291;28;46194;-79
2023/05/22 09:59:30;;;;;;;;;24.50;22.25;;;;;20.55;61.20;100295.69;5077772;28;45236;-77
2023/05/22 10:01:56;;;;;;;;;21.00;21.00;;;;;20.57;61.54;100310.72;5077944;27;45540;-77
2023/05/22 10:04:22;;;;;;;;;22.50;20.75;;;;;20.19;61.33;100256.44;5077923;28;45742;-79
2023/05/22 10:06:53;;;;;;;;;26.00;24.00;;;;;20.47;61.44;100314.38;5077497;28;45486;-79
2023/05/22 10:09:23;;;;;;;;;24.25;24.25;;;;;20.43;61.72;100316.22;5077634;28;45479;-79
2023/05/22 10:11:52;;;;;;;;;25.50;21.25;;;;;20.46;61.01;100318.81;5075908;28;45484;-77
2023/05/22 10:14:18;;;;;;;;;21.50;18.25;;;;;20.23;61.17;100274.06;5077112;28;45510;-77
2023/05/22 10:16:44;;;;;;;;;25.50;23.75;;;;;20.64;61.00;100311.50;5076033;28;45939;-78
2023/05/22 10:19:11;;;;;;;;;27.75;26.00;;;;;20.70;60.85;100305.25;5077700;28;45784;-77
2023/05/22 10:21:40;;;;;;;;;19.25;18.50;;;;;20.81;60.28;100292.66;5077493;28;45556;-77
2023/05/22 10:24:07;;;;;;;;;23.00;21.75;;;;;21.12;60.01;100321.38;5074075;28;45507;-79
2023/05/22 10:26:33;;;;;;;;;25.75;22.75;;;;;20.65;60.02;100281.41;5076246;28;46072;-76
2023/05/22 10:29:06;;;;;;;;;24.25;21.75;;;;;20.39;60.39;100245.53;5077874;28;45425;-77
2023/05/22 10:31:53;;;;;;;;;28.00;26.00;;;;;20.96;60.11;100321.63;5081255;28;45354;-83
2023/05/22 10:35:06;;;;;;;;;20.75;19.50;;;;;20.95;59.91;100318.97;5078020;27;45225;-77
2023/05/22 10:38:10;;;;;;;;;32.00;28.50;;;;;20.78;59.88;100312.19;4993243;28;45883;-75
2023/05/22 10:40:36;;;;;;;;;25.00;24.00;;;;;20.52;60.54;100312.53;5077932;28;45465;-78
2023/05/22 10:43:05;;;;;;;;;26.75;25.00;;;;;20.02;60.65;100235.44;5078867;28;46032;-77
2023/05/22 10:45:31;;;;;;;;;26.75;24.50;;;;;20.32;61.04;100283.66;5077713;28;45616;-78
2023/05/22 10:48:07;;;;;;;;;29.50;25.50;;;;;20.55;61.20;100319.56;5055487;28;45359;-78
2023/05/22 10:50:34;;;;;;;;;23.75;22.00;;;;;20.51;60.76;100313.44;5055364;28;45404;-77
2023/05/22 10:53:25;;;;;;;;;24.33;23.33;;;;;20.55;60.64;100317.81;5056810;28;45360;-78
2023/05/22 10:55:53;;;;;;;;;28.75;27.00;;;;;20.57;60.91;100316.03;5055955;28;45618;-78
2023/05/22 10:58:26;;;;;;;;;23.25;23.25;;;;;20.49;60.36;100290.47;5056392;28;45386;-77
2023/05/22 11:01:12;;;;;;;;;25.00;25.00;;;;;20.49;61.12;100323.19;5056464;28;45450;-77
2023/05/22 11:03:55;;;;;;;;;31.50;28.00;;;;;20.40;61.48;100323.34;5056427;28;45671;-78
2023/05/22 11:06:36;;;;;;;;;25.00;23.25;;;;;20.42;61.39;100316.22;5057734;28;45473;-78
2023/05/22 11:09:36;;;;;;;;;25.75;24.00;;;;;20.36;61.85;100319.84;5060472;28;45379;-78
2023/05/22 11:12:25;;;;;;;;;23.00;22.00;;;;;20.43;61.27;100317.97;5060467;28;45423;-78
2023/05/22 11:14:53;;;;;;;;;27.25;25.00;;;;;20.18;61.16;100269.72;5060064;28;45614;-77